Sumiyoshi Maru No.2 — JD3665 — position and weather

sailwx.info

Track history (hours):
 
Tides and Currents Weather Stations Pressure Air Temp Water Temp Dewpoint Dewpoint Depression Visibility Wind Speed Wind Dir Waves Ship Positions

Sumiyoshi Maru No.2

Last reported at 2018-Feb-22 23:34 UTC. Time now 2018-Feb-23 02:40 UTC.
Position N 33°57' E 131°56'.

Length 61 m.

Type: Cargo ship. MMSI: 431005214.

Date/timePositionNaut miles runAvg speedWind from/ knotsBaromVisibWave heightAir tempDewpointWater temp
2018-Feb-22 23:34N 33°57' E 131°56'1 7.3
2018-Feb-22 23:29N 33°57' E 131°56'13010.7
2018-Feb-22 11:18N 34°28' E 134°29'411.7
2018-Feb-22 10:57N 34°29' E 134°33'511.4
2018-Feb-22 10:30N 34°31' E 134°39'611.1
2018-Feb-22 10:00N 34°33' E 134°45'510.4
2018-Feb-22 09:30N 34°35' E 134°51'5 9.0
2018-Feb-22 09:00N 34°37' E 134°56'4 8.5
2018-Feb-22 08:30N 34°37' E 135°01'5 9.3
2018-Feb-22 08:00N 34°37' E 135°07'611.5
2018-Feb-22 07:28N 34°38' E 135°14'511.3
2018-Feb-22 07:00N 34°38' E 135°21'510.4
2018-Feb-22 06:29N 34°39' E 135°27'0 0.2
2018-Feb-22 06:00N 34°39' E 135°27'0 0.0
2018-Feb-22 05:30N 34°39' E 135°27'0 0.0
2018-Feb-22 05:00N 34°39' E 135°27'0 0.0
2018-Feb-22 04:27N 34°39' E 135°27'0 0.0
2018-Feb-22 04:00N 34°39' E 135°27'0 0.0
2018-Feb-22 03:30N 34°39' E 135°27'0 0.0
2018-Feb-22 03:00N 34°39' E 135°27'0 0.0
2018-Feb-22 02:30N 34°39' E 135°27'0 0.0
2018-Feb-22 02:00N 34°39' E 135°27'0 0.0
2018-Feb-22 01:30N 34°39' E 135°27'0 0.0
2018-Feb-22 01:00N 34°39' E 135°27'0 0.0
2018-Feb-22 00:27N 34°39' E 135°27'0 0.0
2018-Feb-22 00:00N 34°39' E 135°27'0 0.0
2018-Feb-21 23:30N 34°39' E 135°27'0 0.0
2018-Feb-21 23:00N 34°39' E 135°27'1 1.3
2018-Feb-21 22:29N 34°39' E 135°28'0 0.0
2018-Feb-21 21:59N 34°39' E 135°28'0 0.0
2018-Feb-21 21:29N 34°39' E 135°28'0 0.0
2018-Feb-21 20:59N 34°39' E 135°28'0 0.0
2018-Feb-21 20:29N 34°39' E 135°28'0 0.0
2018-Feb-21 19:59N 34°39' E 135°28'0 0.0
2018-Feb-21 19:29N 34°39' E 135°28'0 0.0
2018-Feb-21 18:59N 34°39' E 135°28'0 0.0
2018-Feb-21 18:29N 34°39' E 135°28'0 0.0
2018-Feb-21 17:59N 34°39' E 135°28'0 0.0
2018-Feb-21 17:29N 34°39' E 135°28'0 0.0
2018-Feb-21 16:59N 34°39' E 135°28'0 0.0
2018-Feb-21 16:29N 34°39' E 135°28'0 0.0
2018-Feb-21 15:59N 34°39' E 135°28'0 0.0
2018-Feb-21 15:29N 34°39' E 135°28'0 0.0
2018-Feb-21 14:59N 34°39' E 135°28'0 0.0
2018-Feb-21 14:29N 34°39' E 135°28'0 0.0
2018-Feb-21 13:59N 34°39' E 135°28'0 0.0
2018-Feb-21 13:29N 34°39' E 135°28'0 0.0
2018-Feb-21 12:59N 34°39' E 135°28'0 0.0
2018-Feb-21 12:29N 34°39' E 135°28'0 0.0
2018-Feb-21 11:59N 34°39' E 135°28'0 0.0
2018-Feb-21 11:29N 34°39' E 135°28'0 0.0
2018-Feb-21 10:59N 34°39' E 135°28'0 0.0
2018-Feb-21 10:29N 34°39' E 135°28'0 0.0
2018-Feb-21 09:59N 34°39' E 135°28'0 0.0
2018-Feb-21 09:29N 34°39' E 135°28'0 0.0
2018-Feb-21 08:59N 34°39' E 135°28'0 0.0
2018-Feb-21 08:29N 34°39' E 135°28'0 0.0
2018-Feb-21 07:59N 34°39' E 135°28'0 0.0
2018-Feb-21 07:29N 34°39' E 135°28'0 0.0
2018-Feb-21 06:59N 34°39' E 135°28'0 0.0
2018-Feb-21 06:29N 34°39' E 135°28'0 0.0
2018-Feb-21 05:59N 34°39' E 135°28'0 0.0
2018-Feb-21 05:29N 34°39' E 135°28'0 0.0
2018-Feb-21 04:59N 34°39' E 135°28'0 0.0
2018-Feb-21 04:29N 34°39' E 135°28'0 0.0
2018-Feb-21 03:59N 34°39' E 135°28'0 0.0
2018-Feb-21 03:29N 34°39' E 135°28'0 0.0
2018-Feb-21 02:59N 34°39' E 135°28'0 0.0
2018-Feb-21 02:29N 34°39' E 135°28'0 0.0
2018-Feb-21 01:59N 34°39' E 135°28'0 0.0
2018-Feb-21 01:29N 34°39' E 135°28'0 0.0
2018-Feb-21 00:59N 34°39' E 135°28'0 0.0
2018-Feb-21 00:29N 34°39' E 135°28'0 0.0
2018-Feb-20 23:59N 34°39' E 135°28'0 0.0
2018-Feb-20 23:29N 34°39' E 135°28'0 0.0
2018-Feb-20 22:59N 34°39' E 135°28'0 0.0
2018-Feb-20 22:29N 34°39' E 135°28'0 0.0
2018-Feb-20 21:59N 34°39' E 135°28'0 0.3
2018-Feb-20 21:30N 34°39' E 135°28'3 6.7
2018-Feb-20 21:00N 34°38' E 135°24'510.5
2018-Feb-20 20:30N 34°34' E 135°19'510.7
2018-Feb-20 20:00N 34°30' E 135°15'510.4
2018-Feb-20 19:30N 34°26' E 135°11'5 9.9
2018-Feb-20 19:00N 34°22' E 135°08'510.3
2018-Feb-20 18:30N 34°18' E 135°04'4 8.7
2018-Feb-20 18:00N 34°14' E 135°03'510.5
2018-Feb-20 17:30N 34°09' E 135°02'710.1
2018-Feb-20 16:51N 34°02' E 135°02'410.4
2018-Feb-20 16:29N 33°58' E 135°03'246 9.1
2018-Feb-19 13:28N 35°15' E 139°46'512.0
2018-Feb-19 13:00N 35°20' E 139°43'510.8
2018-Feb-19 12:30N 35°25' E 139°44'510.0
2018-Feb-19 12:00N 35°23' E 139°50'3 6.6
2018-Feb-19 11:28N 35°21' E 139°54'0 0.0
2018-Feb-19 10:58N 35°21' E 139°54'0 0.0
2018-Feb-19 10:28N 35°21' E 139°54'0 0.0
2018-Feb-19 09:55N 35°21' E 139°54'0 0.0
2018-Feb-19 09:28N 35°21' E 139°54'0 0.0
2018-Feb-19 08:55N 35°21' E 139°54'0 0.0
2018-Feb-19 08:25N 35°21' E 139°54'0 0.0
2018-Feb-19 07:58N 35°21' E 139°54'0 0.0
2018-Feb-19 07:28N 35°21' E 139°54'0 0.0
2018-Feb-19 06:49N 35°21' E 139°54'0 0.0
2018-Feb-19 05:34N 35°21' E 139°54'0 0.0
2018-Feb-19 05:16N 35°21' E 139°54'0 0.0
2018-Feb-19 04:58N 35°21' E 139°54'0 0.0
2018-Feb-19 04:28N 35°21' E 139°54'0 0.0
2018-Feb-19 03:55N 35°21' E 139°54'0 0.0
2018-Feb-19 03:25N 35°21' E 139°54'0 0.0
2018-Feb-19 02:46N 35°21' E 139°54'0 0.0
2018-Feb-19 02:28N 35°21' E 139°54'0 0.0
2018-Feb-19 01:58N 35°21' E 139°54'0 0.0
2018-Feb-19 01:28N 35°21' E 139°54'0 0.0
2018-Feb-19 00:46N 35°21' E 139°54'0 0.0
2018-Feb-19 00:04N 35°21' E 139°54'0 0.0
2018-Feb-18 23:46N 35°21' E 139°54'0 0.0
2018-Feb-18 23:28N 35°21' E 139°54'0 0.0
2018-Feb-18 22:52N 35°21' E 139°54'0 0.0
2018-Feb-18 22:28N 35°21' E 139°54'0 0.0
2018-Feb-18 21:58N 35°21' E 139°54'0 0.0
2018-Feb-18 21:16N 35°21' E 139°54'0 0.0
2018-Feb-18 20:52N 35°21' E 139°54'0 0.0
2018-Feb-18 20:25N 35°21' E 139°54'0 0.0
2018-Feb-18 19:58N 35°21' E 139°54'0 0.0
2018-Feb-18 19:10N 35°21' E 139°54'0 0.0
2018-Feb-18 18:52N 35°21' E 139°54'0 0.0
2018-Feb-18 18:28N 35°21' E 139°54'0 0.0
2018-Feb-18 17:55N 35°21' E 139°54'0 0.0
2018-Feb-18 17:13N 35°21' E 139°54'0 0.0
2018-Feb-18 16:49N 35°21' E 139°54'0 0.0
2018-Feb-18 16:22N 35°21' E 139°54'0 0.0
2018-Feb-18 15:58N 35°21' E 139°54'0 0.0
2018-Feb-18 15:25N 35°21' E 139°54'0 0.0
2018-Feb-18 14:58N 35°21' E 139°54'0 0.0
2018-Feb-18 14:01N 35°21' E 139°54'0 0.1
2018-Feb-18 13:58N 35°21' E 139°54'0 0.0
2018-Feb-18 13:28N 35°21' E 139°54'0 0.0
2018-Feb-18 12:58N 35°21' E 139°54'0 0.0
2018-Feb-18 12:25N 35°21' E 139°54'0 0.0
2018-Feb-18 11:55N 35°21' E 139°54'0 0.0
2018-Feb-18 11:28N 35°21' E 139°54'0 0.0
2018-Feb-18 10:58N 35°21' E 139°54'0 0.0
2018-Feb-18 10:28N 35°21' E 139°54'0 0.0
2018-Feb-18 09:52N 35°21' E 139°54'0 0.0
2018-Feb-18 09:22N 35°21' E 139°54'0 0.0
2018-Feb-18 08:52N 35°21' E 139°54'0 0.0
2018-Feb-18 08:25N 35°21' E 139°54'0 0.0
2018-Feb-18 07:58N 35°21' E 139°54'0 0.0
2018-Feb-18 07:28N 35°21' E 139°54'0 0.0
2018-Feb-18 06:58N 35°21' E 139°54'0 0.0
2018-Feb-18 06:28N 35°21' E 139°54'0 0.0
2018-Feb-18 05:43N 35°21' E 139°54'0 0.0
2018-Feb-18 05:28N 35°21' E 139°54'0 0.0
2018-Feb-18 04:37N 35°21' E 139°54'0 0.0
2018-Feb-18 04:19N 35°21' E 139°54'0 0.0
2018-Feb-18 03:55N 35°21' E 139°54'0 0.0
2018-Feb-18 03:28N 35°21' E 139°54'0 0.0
2018-Feb-18 02:58N 35°21' E 139°54'0 0.0
2018-Feb-18 02:28N 35°21' E 139°54'0 0.0
2018-Feb-18 01:58N 35°21' E 139°54'0 0.0
2018-Feb-18 01:28N 35°21' E 139°54'0 0.0
2018-Feb-18 00:58N 35°21' E 139°54'0 0.0
2018-Feb-18 00:22N 35°21' E 139°54'0 0.0
2018-Feb-17 23:58N 35°21' E 139°54'0 0.0
2018-Feb-17 23:28N 35°21' E 139°54'0 0.0
2018-Feb-17 22:55N 35°21' E 139°54'0 0.0
2018-Feb-17 22:19N 35°21' E 139°54'0 0.0
2018-Feb-17 21:52N 35°21' E 139°54'0 0.0
2018-Feb-17 21:28N 35°21' E 139°54'0 0.0
2018-Feb-17 20:58N 35°21' E 139°54'0 0.0
2018-Feb-17 20:28N 35°21' E 139°54'0 0.0
2018-Feb-17 19:58N 35°21' E 139°54'0 0.0
2018-Feb-17 19:28N 35°21' E 139°54'0 0.0
2018-Feb-17 18:58N 35°21' E 139°54'0 0.0
2018-Feb-17 18:25N 35°21' E 139°54'0 0.0
2018-Feb-17 17:58N 35°21' E 139°54'0 0.0
2018-Feb-17 17:28N 35°21' E 139°54'0 0.0
2018-Feb-17 16:58N 35°21' E 139°54'0 0.0
2018-Feb-17 16:25N 35°21' E 139°54'0 0.0
2018-Feb-17 15:58N 35°21' E 139°54'0 0.0
2018-Feb-17 15:28N 35°21' E 139°54'0 0.0
2018-Feb-17 14:58N 35°21' E 139°54'0 0.0
2018-Feb-17 14:28N 35°21' E 139°54'0 0.0
2018-Feb-17 13:52N 35°21' E 139°54'0 0.0
2018-Feb-17 13:28N 35°21' E 139°54'0 0.0
2018-Feb-17 12:55N 35°21' E 139°54'0 0.0
2018-Feb-17 12:28N 35°21' E 139°54'0 0.0
2018-Feb-17 11:58N 35°21' E 139°54'0 0.0
2018-Feb-17 11:25N 35°21' E 139°54'0 0.0
2018-Feb-17 10:55N 35°21' E 139°54'0 0.0
2018-Feb-17 10:28N 35°21' E 139°54'0 0.0
2018-Feb-17 09:58N 35°21' E 139°54'0 0.0
2018-Feb-17 09:28N 35°21' E 139°54'0 0.0
2018-Feb-17 08:52N 35°21' E 139°54'0 0.0
2018-Feb-17 08:28N 35°21' E 139°54'0 0.0
2018-Feb-17 07:58N 35°21' E 139°54'0 0.0
2018-Feb-17 07:28N 35°21' E 139°54'0 0.0
2018-Feb-17 06:58N 35°21' E 139°54'0 0.0
2018-Feb-17 06:22N 35°21' E 139°54'0 0.0
2018-Feb-17 05:58N 35°21' E 139°54'0 0.0
2018-Feb-17 05:25N 35°21' E 139°54'0 0.0
2018-Feb-17 04:52N 35°21' E 139°54'0 0.0
2018-Feb-17 04:25N 35°21' E 139°54'0 0.0
2018-Feb-17 03:46N 35°21' E 139°54'0 0.0
2018-Feb-17 03:28N 35°21' E 139°54'1 1.8
2018-Feb-17 02:58N 35°22' E 139°53'1 2.3
2018-Feb-17 02:31N 35°22' E 139°52'611.3
2018-Feb-17 01:59N 35°25' E 139°45'5 9.5
2018-Feb-17 01:29N 35°27' E 139°40'0 0.2
2018-Feb-17 00:58N 35°27' E 139°40'0 0.0
2018-Feb-17 00:28N 35°27' E 139°40'0 0.0
2018-Feb-16 23:58N 35°27' E 139°40'0 0.0
2018-Feb-16 23:28N 35°27' E 139°40'0 0.0
2018-Feb-16 22:58N 35°27' E 139°40'0 0.0
2018-Feb-16 22:28N 35°27' E 139°40'0 0.0
2018-Feb-16 21:49N 35°27' E 139°40'0 0.0
2018-Feb-16 21:28N 35°27' E 139°40'0 0.0
2018-Feb-16 20:58N 35°27' E 139°40'0 0.0
2018-Feb-16 20:25N 35°27' E 139°40'0 0.0
2018-Feb-16 19:58N 35°27' E 139°40'0 0.0
2018-Feb-16 19:28N 35°27' E 139°40'0 0.0
2018-Feb-16 18:58N 35°27' E 139°40'0 0.0
2018-Feb-16 18:28N 35°27' E 139°40'0 0.0
2018-Feb-16 17:58N 35°27' E 139°40'0 0.0
2018-Feb-16 17:25N 35°27' E 139°40'0 0.0
2018-Feb-16 16:58N 35°27' E 139°40'0 0.0
2018-Feb-16 16:25N 35°27' E 139°40'0 0.0
2018-Feb-16 15:58N 35°27' E 139°40'0 0.0
2018-Feb-16 15:28N 35°27' E 139°40'0 0.0
2018-Feb-16 14:58N 35°27' E 139°40'0 0.0
2018-Feb-16 14:28N 35°27' E 139°40'0 0.0
2018-Feb-16 13:58N 35°27' E 139°40'0 0.1
2018-Feb-16 13:28N 35°27' E 139°40'0 0.1
2018-Feb-16 12:55N 35°27' E 139°40'0 0.0
2018-Feb-16 12:25N 35°27' E 139°40'0 0.0
2018-Feb-16 11:55N 35°27' E 139°40'0 0.0
2018-Feb-16 11:28N 35°27' E 139°40'0 0.0
2018-Feb-16 10:55N 35°27' E 139°40'0 0.0
2018-Feb-16 10:28N 35°27' E 139°40'0 0.0
2018-Feb-16 09:58N 35°27' E 139°40'0 0.0
2018-Feb-16 09:28N 35°27' E 139°40'0 0.0
2018-Feb-16 08:58N 35°27' E 139°40'0 0.0
2018-Feb-16 08:28N 35°27' E 139°40'0 0.0
2018-Feb-16 07:58N 35°27' E 139°40'0 0.0
2018-Feb-16 07:28N 35°27' E 139°40'2 3.1
2018-Feb-16 06:59N 35°27' E 139°42'511.0
2018-Feb-16 06:30N 35°22' E 139°43'612.2
2018-Feb-16 06:00N 35°16' E 139°46'4811.7
2018-Feb-16 01:56N 34°42' E 139°05'207 9.7
2018-Feb-15 04:36N 33°52' E 135°02'112.3
2018-Feb-15 04:29N 33°53' E 135°01'611.9
2018-Feb-15 04:00N 33°57' E 134°56'811.8
2018-Feb-15 03:18N 34°03' E 134°50'512.2
2018-Feb-15 02:55N 34°07' E 134°46'1412.4
2018-Feb-15 01:45N 34°17' E 134°33'93 4.4
2018-Feb-14 04:33N 34°06' E 132°41'110.9
2018-Feb-14 04:30N 34°06' E 132°41'2010.8
2018-Feb-14 02:41N 34°07' E 132°17'2 7.9
2018-Feb-14 02:28N 34°08' E 132°15'0 0.0
2018-Feb-14 01:58N 34°08' E 132°15'0 0.0
2018-Feb-14 01:28N 34°08' E 132°15'0 0.0
2018-Feb-14 00:58N 34°08' E 132°15'0 0.0
2018-Feb-14 00:28N 34°08' E 132°15'0 0.0
2018-Feb-13 23:55N 34°08' E 132°15'1 3.3
2018-Feb-13 23:30N 34°07' E 132°14'0 0.2
2018-Feb-13 22:59N 34°07' E 132°14'0 0.0
2018-Feb-13 22:29N 34°07' E 132°14'0 0.0
2018-Feb-13 21:59N 34°07' E 132°14'0 0.0
2018-Feb-13 21:29N 34°07' E 132°14'0 0.0
2018-Feb-13 20:53N 34°07' E 132°14'0 0.0
2018-Feb-13 20:29N 34°07' E 132°14'0 0.0
2018-Feb-13 19:59N 34°07' E 132°14'0 0.0
2018-Feb-13 19:29N 34°07' E 132°14'0 0.0
2018-Feb-13 18:59N 34°07' E 132°14'0 0.0
2018-Feb-13 18:23N 34°07' E 132°14'0 0.0
2018-Feb-13 17:59N 34°07' E 132°14'0 0.0
2018-Feb-13 17:29N 34°07' E 132°14'0 0.0
2018-Feb-13 16:59N 34°07' E 132°14'0 0.0
2018-Feb-13 16:29N 34°07' E 132°14'0 0.0
2018-Feb-13 15:59N 34°07' E 132°14'0 0.0
2018-Feb-13 15:29N 34°07' E 132°14'0 0.0
2018-Feb-13 14:59N 34°07' E 132°14'3 6.9
2018-Feb-13 14:30N 34°03' E 132°14'31 8.6
2018-Feb-13 10:52N 33°49' E 131°41'411.6
2018-Feb-13 10:30N 33°49' E 131°36'611.6
2018-Feb-13 09:58N 33°50' E 131°28'511.5
2018-Feb-13 09:30N 33°51' E 131°22'611.2
2018-Feb-13 09:00N 33°53' E 131°15'611.5
2018-Feb-13 08:30N 33°55' E 131°09'611.6
2018-Feb-13 08:01N 33°57' E 131°03'510.1
2018-Feb-13 07:30N 33°56' E 130°57'4 8.5
2018-Feb-13 07:00N 33°54' E 130°52'0 0.0
2018-Feb-13 06:30N 33°54' E 130°52'0 0.0
2018-Feb-13 06:00N 33°54' E 130°52'0 0.0
2018-Feb-13 05:30N 33°54' E 130°52'0 0.0
2018-Feb-13 05:00N 33°54' E 130°52'0 0.0
2018-Feb-13 04:30N 33°54' E 130°52'0 0.0
2018-Feb-13 04:00N 33°54' E 130°52'0 0.0
2018-Feb-13 03:30N 33°54' E 130°52'0 0.0
2018-Feb-13 03:00N 33°54' E 130°52'0 0.0
2018-Feb-13 02:30N 33°54' E 130°52'0 0.0
2018-Feb-13 02:00N 33°54' E 130°52'0 0.0
2018-Feb-13 01:30N 33°54' E 130°52'0 0.0
2018-Feb-13 01:00N 33°54' E 130°52'0 0.0
2018-Feb-13 00:30N 33°54' E 130°52'0 0.0
2018-Feb-13 00:00N 33°54' E 130°52'  
Track history (hours):
 
Tides and Currents Weather Stations Pressure Air Temp Water Temp Dewpoint Dewpoint Depression Visibility Wind Speed Wind Dir Waves Ship Positions

Sumiyoshi Maru No.2

Last reported at 2018-Feb-22 23:34 UTC. Time now 2018-Feb-23 02:40 UTC.
Position N 33°57' E 131°56'.

Length 61 m.

Type: Cargo ship. MMSI: 431005214.

Date/timePositionNaut miles runAvg speedWind from/ knotsBaromVisibWave heightAir tempDewpointWater temp
2018-Feb-22 23:34N 33°57' E 131°56'1 7.3
2018-Feb-22 23:29N 33°57' E 131°56'13010.7
2018-Feb-22 11:18N 34°28' E 134°29'411.7
2018-Feb-22 10:57N 34°29' E 134°33'511.4
2018-Feb-22 10:30N 34°31' E 134°39'611.1
2018-Feb-22 10:00N 34°33' E 134°45'510.4
2018-Feb-22 09:30N 34°35' E 134°51'5 9.0
2018-Feb-22 09:00N 34°37' E 134°56'4 8.5
2018-Feb-22 08:30N 34°37' E 135°01'5 9.3
2018-Feb-22 08:00N 34°37' E 135°07'611.5
2018-Feb-22 07:28N 34°38' E 135°14'511.3
2018-Feb-22 07:00N 34°38' E 135°21'510.4
2018-Feb-22 06:29N 34°39' E 135°27'0 0.2
2018-Feb-22 06:00N 34°39' E 135°27'0 0.0
2018-Feb-22 05:30N 34°39' E 135°27'0 0.0
2018-Feb-22 05:00N 34°39' E 135°27'0 0.0
2018-Feb-22 04:27N 34°39' E 135°27'0 0.0
2018-Feb-22 04:00N 34°39' E 135°27'0 0.0
2018-Feb-22 03:30N 34°39' E 135°27'0 0.0
2018-Feb-22 03:00N 34°39' E 135°27'0 0.0
2018-Feb-22 02:30N 34°39' E 135°27'0 0.0
2018-Feb-22 02:00N 34°39' E 135°27'0 0.0
2018-Feb-22 01:30N 34°39' E 135°27'0 0.0
2018-Feb-22 01:00N 34°39' E 135°27'0 0.0
2018-Feb-22 00:27N 34°39' E 135°27'0 0.0
2018-Feb-22 00:00N 34°39' E 135°27'0 0.0
2018-Feb-21 23:30N 34°39' E 135°27'0 0.0
2018-Feb-21 23:00N 34°39' E 135°27'1 1.3
2018-Feb-21 22:29N 34°39' E 135°28'0 0.0
2018-Feb-21 21:59N 34°39' E 135°28'0 0.0
2018-Feb-21 21:29N 34°39' E 135°28'0 0.0
2018-Feb-21 20:59N 34°39' E 135°28'0 0.0
2018-Feb-21 20:29N 34°39' E 135°28'0 0.0
2018-Feb-21 19:59N 34°39' E 135°28'0 0.0
2018-Feb-21 19:29N 34°39' E 135°28'0 0.0
2018-Feb-21 18:59N 34°39' E 135°28'0 0.0
2018-Feb-21 18:29N 34°39' E 135°28'0 0.0
2018-Feb-21 17:59N 34°39' E 135°28'0 0.0
2018-Feb-21 17:29N 34°39' E 135°28'0 0.0
2018-Feb-21 16:59N 34°39' E 135°28'0 0.0
2018-Feb-21 16:29N 34°39' E 135°28'0 0.0
2018-Feb-21 15:59N 34°39' E 135°28'0 0.0
2018-Feb-21 15:29N 34°39' E 135°28'0 0.0
2018-Feb-21 14:59N 34°39' E 135°28'0 0.0
2018-Feb-21 14:29N 34°39' E 135°28'0 0.0
2018-Feb-21 13:59N 34°39' E 135°28'0 0.0
2018-Feb-21 13:29N 34°39' E 135°28'0 0.0
2018-Feb-21 12:59N 34°39' E 135°28'0 0.0
2018-Feb-21 12:29N 34°39' E 135°28'0 0.0
2018-Feb-21 11:59N 34°39' E 135°28'0 0.0
2018-Feb-21 11:29N 34°39' E 135°28'0 0.0
2018-Feb-21 10:59N 34°39' E 135°28'0 0.0
2018-Feb-21 10:29N 34°39' E 135°28'0 0.0
2018-Feb-21 09:59N 34°39' E 135°28'0 0.0
2018-Feb-21 09:29N 34°39' E 135°28'0 0.0
2018-Feb-21 08:59N 34°39' E 135°28'0 0.0
2018-Feb-21 08:29N 34°39' E 135°28'0 0.0
2018-Feb-21 07:59N 34°39' E 135°28'0 0.0
2018-Feb-21 07:29N 34°39' E 135°28'0 0.0
2018-Feb-21 06:59N 34°39' E 135°28'0 0.0
2018-Feb-21 06:29N 34°39' E 135°28'0 0.0
2018-Feb-21 05:59N 34°39' E 135°28'0 0.0
2018-Feb-21 05:29N 34°39' E 135°28'0 0.0
2018-Feb-21 04:59N 34°39' E 135°28'0 0.0
2018-Feb-21 04:29N 34°39' E 135°28'0 0.0
2018-Feb-21 03:59N 34°39' E 135°28'0 0.0
2018-Feb-21 03:29N 34°39' E 135°28'0 0.0
2018-Feb-21 02:59N 34°39' E 135°28'0 0.0
2018-Feb-21 02:29N 34°39' E 135°28'0 0.0
2018-Feb-21 01:59N 34°39' E 135°28'0 0.0
2018-Feb-21 01:29N 34°39' E 135°28'0 0.0
2018-Feb-21 00:59N 34°39' E 135°28'0 0.0
2018-Feb-21 00:29N 34°39' E 135°28'0 0.0
2018-Feb-20 23:59N 34°39' E 135°28'0 0.0
2018-Feb-20 23:29N 34°39' E 135°28'0 0.0
2018-Feb-20 22:59N 34°39' E 135°28'0 0.0
2018-Feb-20 22:29N 34°39' E 135°28'0 0.0
2018-Feb-20 21:59N 34°39' E 135°28'0 0.3
2018-Feb-20 21:30N 34°39' E 135°28'3 6.7
2018-Feb-20 21:00N 34°38' E 135°24'510.5
2018-Feb-20 20:30N 34°34' E 135°19'510.7
2018-Feb-20 20:00N 34°30' E 135°15'510.4
2018-Feb-20 19:30N 34°26' E 135°11'5 9.9
2018-Feb-20 19:00N 34°22' E 135°08'510.3
2018-Feb-20 18:30N 34°18' E 135°04'4 8.7
2018-Feb-20 18:00N 34°14' E 135°03'510.5
2018-Feb-20 17:30N 34°09' E 135°02'710.1
2018-Feb-20 16:51N 34°02' E 135°02'410.4
2018-Feb-20 16:29N 33°58' E 135°03'246 9.1
2018-Feb-19 13:28N 35°15' E 139°46'512.0
2018-Feb-19 13:00N 35°20' E 139°43'510.8
2018-Feb-19 12:30N 35°25' E 139°44'510.0
2018-Feb-19 12:00N 35°23' E 139°50'3 6.6
2018-Feb-19 11:28N 35°21' E 139°54'0 0.0
2018-Feb-19 10:58N 35°21' E 139°54'0 0.0
2018-Feb-19 10:28N 35°21' E 139°54'0 0.0
2018-Feb-19 09:55N 35°21' E 139°54'0 0.0
2018-Feb-19 09:28N 35°21' E 139°54'0 0.0
2018-Feb-19 08:55N 35°21' E 139°54'0 0.0
2018-Feb-19 08:25N 35°21' E 139°54'0 0.0
2018-Feb-19 07:58N 35°21' E 139°54'0 0.0
2018-Feb-19 07:28N 35°21' E 139°54'0 0.0
2018-Feb-19 06:49N 35°21' E 139°54'0 0.0
2018-Feb-19 05:34N 35°21' E 139°54'0 0.0
2018-Feb-19 05:16N 35°21' E 139°54'0 0.0
2018-Feb-19 04:58N 35°21' E 139°54'0 0.0
2018-Feb-19 04:28N 35°21' E 139°54'0 0.0
2018-Feb-19 03:55N 35°21' E 139°54'0 0.0
2018-Feb-19 03:25N 35°21' E 139°54'0 0.0
2018-Feb-19 02:46N 35°21' E 139°54'0 0.0
2018-Feb-19 02:28N 35°21' E 139°54'0 0.0
2018-Feb-19 01:58N 35°21' E 139°54'0 0.0
2018-Feb-19 01:28N 35°21' E 139°54'0 0.0
2018-Feb-19 00:46N 35°21' E 139°54'0 0.0
2018-Feb-19 00:04N 35°21' E 139°54'0 0.0
2018-Feb-18 23:46N 35°21' E 139°54'0 0.0
2018-Feb-18 23:28N 35°21' E 139°54'0 0.0
2018-Feb-18 22:52N 35°21' E 139°54'0 0.0
2018-Feb-18 22:28N 35°21' E 139°54'0 0.0
2018-Feb-18 21:58N 35°21' E 139°54'0 0.0
2018-Feb-18 21:16N 35°21' E 139°54'0 0.0
2018-Feb-18 20:52N 35°21' E 139°54'0 0.0
2018-Feb-18 20:25N 35°21' E 139°54'0 0.0
2018-Feb-18 19:58N 35°21' E 139°54'0 0.0
2018-Feb-18 19:10N 35°21' E 139°54'0 0.0
2018-Feb-18 18:52N 35°21' E 139°54'0 0.0
2018-Feb-18 18:28N 35°21' E 139°54'0 0.0
2018-Feb-18 17:55N 35°21' E 139°54'0 0.0
2018-Feb-18 17:13N 35°21' E 139°54'0 0.0
2018-Feb-18 16:49N 35°21' E 139°54'0 0.0
2018-Feb-18 16:22N 35°21' E 139°54'0 0.0
2018-Feb-18 15:58N 35°21' E 139°54'0 0.0
2018-Feb-18 15:25N 35°21' E 139°54'0 0.0
2018-Feb-18 14:58N 35°21' E 139°54'0 0.0
2018-Feb-18 14:01N 35°21' E 139°54'0 0.1
2018-Feb-18 13:58N 35°21' E 139°54'0 0.0
2018-Feb-18 13:28N 35°21' E 139°54'0 0.0
2018-Feb-18 12:58N 35°21' E 139°54'0 0.0
2018-Feb-18 12:25N 35°21' E 139°54'0 0.0
2018-Feb-18 11:55N 35°21' E 139°54'0 0.0
2018-Feb-18 11:28N 35°21' E 139°54'0 0.0
2018-Feb-18 10:58N 35°21' E 139°54'0 0.0
2018-Feb-18 10:28N 35°21' E 139°54'0 0.0
2018-Feb-18 09:52N 35°21' E 139°54'0 0.0
2018-Feb-18 09:22N 35°21' E 139°54'0 0.0
2018-Feb-18 08:52N 35°21' E 139°54'0 0.0
2018-Feb-18 08:25N 35°21' E 139°54'0 0.0
2018-Feb-18 07:58N 35°21' E 139°54'0 0.0
2018-Feb-18 07:28N 35°21' E 139°54'0 0.0
2018-Feb-18 06:58N 35°21' E 139°54'0 0.0
2018-Feb-18 06:28N 35°21' E 139°54'0 0.0
2018-Feb-18 05:43N 35°21' E 139°54'0 0.0
2018-Feb-18 05:28N 35°21' E 139°54'0 0.0
2018-Feb-18 04:37N 35°21' E 139°54'0 0.0
2018-Feb-18 04:19N 35°21' E 139°54'0 0.0
2018-Feb-18 03:55N 35°21' E 139°54'0 0.0
2018-Feb-18 03:28N 35°21' E 139°54'0 0.0
2018-Feb-18 02:58N 35°21' E 139°54'0 0.0
2018-Feb-18 02:28N 35°21' E 139°54'0 0.0
2018-Feb-18 01:58N 35°21' E 139°54'0 0.0
2018-Feb-18 01:28N 35°21' E 139°54'0 0.0
2018-Feb-18 00:58N 35°21' E 139°54'0 0.0
2018-Feb-18 00:22N 35°21' E 139°54'0 0.0
2018-Feb-17 23:58N 35°21' E 139°54'0 0.0
2018-Feb-17 23:28N 35°21' E 139°54'0 0.0
2018-Feb-17 22:55N 35°21' E 139°54'0 0.0
2018-Feb-17 22:19N 35°21' E 139°54'0 0.0
2018-Feb-17 21:52N 35°21' E 139°54'0 0.0
2018-Feb-17 21:28N 35°21' E 139°54'0 0.0
2018-Feb-17 20:58N 35°21' E 139°54'0 0.0
2018-Feb-17 20:28N 35°21' E 139°54'0 0.0
2018-Feb-17 19:58N 35°21' E 139°54'0 0.0
2018-Feb-17 19:28N 35°21' E 139°54'0 0.0
2018-Feb-17 18:58N 35°21' E 139°54'0 0.0
2018-Feb-17 18:25N 35°21' E 139°54'0 0.0
2018-Feb-17 17:58N 35°21' E 139°54'0 0.0
2018-Feb-17 17:28N 35°21' E 139°54'0 0.0
2018-Feb-17 16:58N 35°21' E 139°54'0 0.0
2018-Feb-17 16:25N 35°21' E 139°54'0 0.0
2018-Feb-17 15:58N 35°21' E 139°54'0 0.0
2018-Feb-17 15:28N 35°21' E 139°54'0 0.0
2018-Feb-17 14:58N 35°21' E 139°54'0 0.0
2018-Feb-17 14:28N 35°21' E 139°54'0 0.0
2018-Feb-17 13:52N 35°21' E 139°54'0 0.0
2018-Feb-17 13:28N 35°21' E 139°54'0 0.0
2018-Feb-17 12:55N 35°21' E 139°54'0 0.0
2018-Feb-17 12:28N 35°21' E 139°54'0 0.0
2018-Feb-17 11:58N 35°21' E 139°54'0 0.0
2018-Feb-17 11:25N 35°21' E 139°54'0 0.0
2018-Feb-17 10:55N 35°21' E 139°54'0 0.0
2018-Feb-17 10:28N 35°21' E 139°54'0 0.0
2018-Feb-17 09:58N 35°21' E 139°54'0 0.0
2018-Feb-17 09:28N 35°21' E 139°54'0 0.0
2018-Feb-17 08:52N 35°21' E 139°54'0 0.0
2018-Feb-17 08:28N 35°21' E 139°54'0 0.0
2018-Feb-17 07:58N 35°21' E 139°54'0 0.0
2018-Feb-17 07:28N 35°21' E 139°54'0 0.0
2018-Feb-17 06:58N 35°21' E 139°54'0 0.0
2018-Feb-17 06:22N 35°21' E 139°54'0 0.0
2018-Feb-17 05:58N 35°21' E 139°54'0 0.0
2018-Feb-17 05:25N 35°21' E 139°54'0 0.0
2018-Feb-17 04:52N 35°21' E 139°54'0 0.0
2018-Feb-17 04:25N 35°21' E 139°54'0 0.0
2018-Feb-17 03:46N 35°21' E 139°54'0 0.0
2018-Feb-17 03:28N 35°21' E 139°54'1 1.8
2018-Feb-17 02:58N 35°22' E 139°53'1 2.3
2018-Feb-17 02:31N 35°22' E 139°52'611.3
2018-Feb-17 01:59N 35°25' E 139°45'5 9.5
2018-Feb-17 01:29N 35°27' E 139°40'0 0.2
2018-Feb-17 00:58N 35°27' E 139°40'0 0.0
2018-Feb-17 00:28N 35°27' E 139°40'0 0.0
2018-Feb-16 23:58N 35°27' E 139°40'0 0.0
2018-Feb-16 23:28N 35°27' E 139°40'0 0.0
2018-Feb-16 22:58N 35°27' E 139°40'0 0.0
2018-Feb-16 22:28N 35°27' E 139°40'0 0.0
2018-Feb-16 21:49N 35°27' E 139°40'0 0.0
2018-Feb-16 21:28N 35°27' E 139°40'0 0.0
2018-Feb-16 20:58N 35°27' E 139°40'0 0.0
2018-Feb-16 20:25N 35°27' E 139°40'0 0.0
2018-Feb-16 19:58N 35°27' E 139°40'0 0.0
2018-Feb-16 19:28N 35°27' E 139°40'0 0.0
2018-Feb-16 18:58N 35°27' E 139°40'0 0.0
2018-Feb-16 18:28N 35°27' E 139°40'0 0.0
2018-Feb-16 17:58N 35°27' E 139°40'0 0.0
2018-Feb-16 17:25N 35°27' E 139°40'0 0.0
2018-Feb-16 16:58N 35°27' E 139°40'0 0.0
2018-Feb-16 16:25N 35°27' E 139°40'0 0.0
2018-Feb-16 15:58N 35°27' E 139°40'0 0.0
2018-Feb-16 15:28N 35°27' E 139°40'0 0.0
2018-Feb-16 14:58N 35°27' E 139°40'0 0.0
2018-Feb-16 14:28N 35°27' E 139°40'0 0.0
2018-Feb-16 13:58N 35°27' E 139°40'0 0.1
2018-Feb-16 13:28N 35°27' E 139°40'0 0.1
2018-Feb-16 12:55N 35°27' E 139°40'0 0.0
2018-Feb-16 12:25N 35°27' E 139°40'0 0.0
2018-Feb-16 11:55N 35°27' E 139°40'0 0.0
2018-Feb-16 11:28N 35°27' E 139°40'0 0.0
2018-Feb-16 10:55N 35°27' E 139°40'0 0.0
2018-Feb-16 10:28N 35°27' E 139°40'0 0.0
2018-Feb-16 09:58N 35°27' E 139°40'0 0.0
2018-Feb-16 09:28N 35°27' E 139°40'0 0.0
2018-Feb-16 08:58N 35°27' E 139°40'0 0.0
2018-Feb-16 08:28N 35°27' E 139°40'0 0.0
2018-Feb-16 07:58N 35°27' E 139°40'0 0.0
2018-Feb-16 07:28N 35°27' E 139°40'2 3.1
2018-Feb-16 06:59N 35°27' E 139°42'511.0
2018-Feb-16 06:30N 35°22' E 139°43'612.2
2018-Feb-16 06:00N 35°16' E 139°46'4811.7
2018-Feb-16 01:56N 34°42' E 139°05'207 9.7
2018-Feb-15 04:36N 33°52' E 135°02'112.3
2018-Feb-15 04:29N 33°53' E 135°01'611.9
2018-Feb-15 04:00N 33°57' E 134°56'811.8
2018-Feb-15 03:18N 34°03' E 134°50'512.2
2018-Feb-15 02:55N 34°07' E 134°46'1412.4
2018-Feb-15 01:45N 34°17' E 134°33'93 4.4
2018-Feb-14 04:33N 34°06' E 132°41'110.9
2018-Feb-14 04:30N 34°06' E 132°41'2010.8
2018-Feb-14 02:41N 34°07' E 132°17'2 7.9
2018-Feb-14 02:28N 34°08' E 132°15'0 0.0
2018-Feb-14 01:58N 34°08' E 132°15'0 0.0
2018-Feb-14 01:28N 34°08' E 132°15'0 0.0
2018-Feb-14 00:58N 34°08' E 132°15'0 0.0
2018-Feb-14 00:28N 34°08' E 132°15'0 0.0
2018-Feb-13 23:55N 34°08' E 132°15'1 3.3
2018-Feb-13 23:30N 34°07' E 132°14'0 0.2
2018-Feb-13 22:59N 34°07' E 132°14'0 0.0
2018-Feb-13 22:29N 34°07' E 132°14'0 0.0
2018-Feb-13 21:59N 34°07' E 132°14'0 0.0
2018-Feb-13 21:29N 34°07' E 132°14'0 0.0
2018-Feb-13 20:53N 34°07' E 132°14'0 0.0
2018-Feb-13 20:29N 34°07' E 132°14'0 0.0
2018-Feb-13 19:59N 34°07' E 132°14'0 0.0
2018-Feb-13 19:29N 34°07' E 132°14'0 0.0
2018-Feb-13 18:59N 34°07' E 132°14'0 0.0
2018-Feb-13 18:23N 34°07' E 132°14'0 0.0
2018-Feb-13 17:59N 34°07' E 132°14'0 0.0
2018-Feb-13 17:29N 34°07' E 132°14'0 0.0
2018-Feb-13 16:59N 34°07' E 132°14'0 0.0
2018-Feb-13 16:29N 34°07' E 132°14'0 0.0
2018-Feb-13 15:59N 34°07' E 132°14'0 0.0
2018-Feb-13 15:29N 34°07' E 132°14'0 0.0
2018-Feb-13 14:59N 34°07' E 132°14'3 6.9
2018-Feb-13 14:30N 34°03' E 132°14'31 8.6
2018-Feb-13 10:52N 33°49' E 131°41'411.6
2018-Feb-13 10:30N 33°49' E 131°36'611.6
2018-Feb-13 09:58N 33°50' E 131°28'511.5
2018-Feb-13 09:30N 33°51' E 131°22'611.2
2018-Feb-13 09:00N 33°53' E 131°15'611.5
2018-Feb-13 08:30N 33°55' E 131°09'611.6
2018-Feb-13 08:01N 33°57' E 131°03'510.1
2018-Feb-13 07:30N 33°56' E 130°57'4 8.5
2018-Feb-13 07:00N 33°54' E 130°52'0 0.0
2018-Feb-13 06:30N 33°54' E 130°52'0 0.0
2018-Feb-13 06:00N 33°54' E 130°52'0 0.0
2018-Feb-13 05:30N 33°54' E 130°52'0 0.0
2018-Feb-13 05:00N 33°54' E 130°52'0 0.0
2018-Feb-13 04:30N 33°54' E 130°52'0 0.0
2018-Feb-13 04:00N 33°54' E 130°52'0 0.0
2018-Feb-13 03:30N 33°54' E 130°52'0 0.0
2018-Feb-13 03:00N 33°54' E 130°52'0 0.0
2018-Feb-13 02:30N 33°54' E 130°52'0 0.0
2018-Feb-13 02:00N 33°54' E 130°52'0 0.0
2018-Feb-13 01:30N 33°54' E 130°52'0 0.0
2018-Feb-13 01:00N 33°54' E 130°52'0 0.0
2018-Feb-13 00:30N 33°54' E 130°52'0 0.0
2018-Feb-13 00:00N 33°54' E 130°52'  

Dump ship's entire track history